sensor_id;sensor_type;location;lat;lon;timestamp;temperature;humidity
21906;DHT22;11117;48.644;9.006;2024-02-26T00:02:00;7.60;99.90
21906;DHT22;11117;48.644;9.006;2024-02-26T00:04:26;7.70;99.90
21906;DHT22;11117;48.644;9.006;2024-02-26T00:06:51;7.70;99.90
21906;DHT22;11117;48.644;9.006;2024-02-26T00:09:17;7.60;99.90
21906;DHT22;11117;48.644;9.006;2024-02-26T00:11:43;7.60;99.90
21906;DHT22;11117;48.644;9.006;2024-02-26T00:14:08;7.70;99.90
21906;DHT22;11117;48.644;9.006;2024-02-26T00:16:34;7.70;99.90
21906;DHT22;11117;48.644;9.006;2024-02-26T00:18:59;7.70;99.90
21906;DHT22;11117;48.644;9.006;2024-02-26T00:21:25;7.80;99.90
21906;DHT22;11117;48.644;9.006;2024-02-26T00:23:51;7.90;99.90
21906;DHT22;11117;48.644;9.006;2024-02-26T00:26:17;7.90;99.90
21906;DHT22;11117;48.644;9.006;2024-02-26T00:28:43;7.90;99.90
21906;DHT22;11117;48.644;9.006;2024-02-26T00:31:08;7.90;99.90
21906;DHT22;11117;48.644;9.006;2024-02-26T00:33:34;8.00;99.90
21906;DHT22;11117;48.644;9.006;2024-02-26T00:35:59;8.00;99.90
21906;DHT22;11117;48.644;9.006;2024-02-26T00:38:25;8.00;99.90
21906;DHT22;11117;48.644;9.006;2024-02-26T00:40:50;8.00;99.90
21906;DHT22;11117;48.644;9.006;2024-02-26T00:43:16;8.00;99.90
21906;DHT22;11117;48.644;9.006;2024-02-26T00:45:41;8.00;99.90
21906;DHT22;11117;48.644;9.006;2024-02-26T00:48:07;8.10;99.90
21906;DHT22;11117;48.644;9.006;2024-02-26T00:50:36;8.10;99.90
21906;DHT22;11117;48.644;9.006;2024-02-26T00:53:02;8.00;99.90
21906;DHT22;11117;48.644;9.006;2024-02-26T00:55:28;8.00;99.90
21906;DHT22;11117;48.644;9.006;2024-02-26T00:57:53;8.10;99.90
21906;DHT22;11117;48.644;9.006;2024-02-26T01:00:19;8.10;99.90
21906;DHT22;11117;48.644;9.006;2024-02-26T01:02:45;8.00;99.90
21906;DHT22;11117;48.644;9.006;2024-02-26T01:05:10;8.00;99.90
21906;DHT22;11117;48.644;9.006;2024-02-26T01:07:36;8.00;99.90
21906;DHT22;11117;48.644;9.006;2024-02-26T01:10:02;8.10;99.90
21906;DHT22;11117;48.644;9.006;2024-02-26T01:12:27;8.10;99.90
21906;DHT22;11117;48.644;9.006;2024-02-26T01:14:53;8.10;99.90
21906;DHT22;11117;48.644;9.006;2024-02-26T01:17:18;8.20;99.90
21906;DHT22;11117;48.644;9.006;2024-02-26T01:19:44;8.20;99.90
21906;DHT22;11117;48.644;9.006;2024-02-26T01:22:10;8.20;99.90
21906;DHT22;11117;48.644;9.006;2024-02-26T01:24:35;8.20;99.90
21906;DHT22;11117;48.644;9.006;2024-02-26T01:27:01;8.10;99.90
21906;DHT22;11117;48.644;9.006;2024-02-26T01:29:26;8.10;99.90
21906;DHT22;11117;48.644;9.006;2024-02-26T01:31:52;8.20;99.90
21906;DHT22;11117;48.644;9.006;2024-02-26T01:34:17;8.20;99.90
21906;DHT22;11117;48.644;9.006;2024-02-26T01:36:43;8.20;99.90
21906;DHT22;11117;48.644;9.006;2024-02-26T01:39:09;8.20;99.90
21906;DHT22;11117;48.644;9.006;2024-02-26T01:41:34;8.30;99.90
21906;DHT22;11117;48.644;9.006;2024-02-26T01:44:00;8.30;99.90
21906;DHT22;11117;48.644;9.006;2024-02-26T01:46:25;8.20;99.90
21906;DHT22;11117;48.644;9.006;2024-02-26T01:48:51;8.10;99.90
21906;DHT22;11117;48.644;9.006;2024-02-26T01:51:16;8.20;99.90
21906;DHT22;11117;48.644;9.006;2024-02-26T01:53:42;8.20;99.90
21906;DHT22;11117;48.644;9.006;2024-02-26T01:56:08;8.10;99.90
21906;DHT22;11117;48.644;9.006;2024-02-26T01:58:35;8.10;99.90
21906;DHT22;11117;48.644;9.006;2024-02-26T02:01:01;8.10;99.90
21906;DHT22;11117;48.644;9.006;2024-02-26T02:03:28;8.10;99.90
21906;DHT22;11117;48.644;9.006;2024-02-26T02:05:53;7.90;99.90
21906;DHT22;11117;48.644;9.006;2024-02-26T02:08:19;7.80;99.90
21906;DHT22;11117;48.644;9.006;2024-02-26T02:10:45;7.70;99.90
21906;DHT22;11117;48.644;9.006;2024-02-26T02:13:11;7.60;99.90
21906;DHT22;11117;48.644;9.006;2024-02-26T02:15:36;7.60;99.90
21906;DHT22;11117;48.644;9.006;2024-02-26T02:18:02;7.60;99.90
21906;DHT22;11117;48.644;9.006;2024-02-26T02:20:34;7.80;99.90
21906;DHT22;11117;48.644;9.006;2024-02-26T02:23:00;7.90;99.90
21906;DHT22;11117;48.644;9.006;2024-02-26T02:25:25;8.00;99.90
21906;DHT22;11117;48.644;9.006;2024-02-26T02:27:55;8.20;99.90
21906;DHT22;11117;48.644;9.006;2024-02-26T02:30:24;8.30;99.90
21906;DHT22;11117;48.644;9.006;2024-02-26T02:32:53;8.30;99.90
21906;DHT22;11117;48.644;9.006;2024-02-26T02:35:20;8.30;99.90
21906;DHT22;11117;48.644;9.006;2024-02-26T02:37:46;8.30;99.90
21906;DHT22;11117;48.644;9.006;2024-02-26T02:40:11;8.30;99.90
21906;DHT22;11117;48.644;9.006;2024-02-26T02:42:37;8.40;99.90
21906;DHT22;11117;48.644;9.006;2024-02-26T02:45:03;8.50;99.90
21906;DHT22;11117;48.644;9.006;2024-02-26T02:47:28;8.50;99.90
21906;DHT22;11117;48.644;9.006;2024-02-26T02:49:54;8.50;99.90
21906;DHT22;11117;48.644;9.006;2024-02-26T02:52:19;8.50;99.90
21906;DHT22;11117;48.644;9.006;2024-02-26T02:54:45;8.60;99.90
21906;DHT22;11117;48.644;9.006;2024-02-26T02:57:10;8.40;99.90
21906;DHT22;11117;48.644;9.006;2024-02-26T02:59:37;8.30;99.90
21906;DHT22;11117;48.644;9.006;2024-02-26T03:02:03;8.10;99.90
21906;DHT22;11117;48.644;9.006;2024-02-26T03:04:28;8.00;99.90
21906;DHT22;11117;48.644;9.006;2024-02-26T03:06:54;7.90;99.90
21906;DHT22;11117;48.644;9.006;2024-02-26T03:09:20;8.00;99.90
21906;DHT22;11117;48.644;9.006;2024-02-26T03:11:45;8.10;99.90
21906;DHT22;11117;48.644;9.006;2024-02-26T03:14:11;8.00;99.90
21906;DHT22;11117;48.644;9.006;2024-02-26T03:16:36;8.20;99.90
21906;DHT22;11117;48.644;9.006;2024-02-26T03:19:02;8.30;99.90
21906;DHT22;11117;48.644;9.006;2024-02-26T03:21:27;8.30;99.90
21906;DHT22;11117;48.644;9.006;2024-02-26T03:23:53;8.40;99.90
21906;DHT22;11117;48.644;9.006;2024-02-26T03:26:19;8.50;99.90
21906;DHT22;11117;48.644;9.006;2024-02-26T03:28:44;8.60;99.90
21906;DHT22;11117;48.644;9.006;2024-02-26T03:31:10;8.60;99.90
21906;DHT22;11117;48.644;9.006;2024-02-26T03:33:35;8.60;99.90
21906;DHT22;11117;48.644;9.006;2024-02-26T03:36:01;8.70;99.90
21906;DHT22;11117;48.644;9.006;2024-02-26T03:38:27;8.70;99.90
21906;DHT22;11117;48.644;9.006;2024-02-26T03:40:52;8.70;99.90
21906;DHT22;11117;48.644;9.006;2024-02-26T03:43:18;8.80;99.90
21906;DHT22;11117;48.644;9.006;2024-02-26T03:45:43;8.80;99.90
21906;DHT22;11117;48.644;9.006;2024-02-26T03:48:09;8.80;99.90
21906;DHT22;11117;48.644;9.006;2024-02-26T03:50:34;8.80;99.90
21906;DHT22;11117;48.644;9.006;2024-02-26T03:53:00;8.80;99.90
21906;DHT22;11117;48.644;9.006;2024-02-26T03:55:25;8.90;99.90
21906;DHT22;11117;48.644;9.006;2024-02-26T03:57:54;8.80;99.90
21906;DHT22;11117;48.644;9.006;2024-02-26T04:00:20;8.90;99.90
21906;DHT22;11117;48.644;9.006;2024-02-26T04:02:49;8.90;99.90
21906;DHT22;11117;48.644;9.006;2024-02-26T04:05:14;8.80;99.90
21906;DHT22;11117;48.644;9.006;2024-02-26T04:07:40;8.90;99.90
21906;DHT22;11117;48.644;9.006;2024-02-26T04:10:10;8.60;99.90
21906;DHT22;11117;48.644;9.006;2024-02-26T04:12:39;8.50;99.90
21906;DHT22;11117;48.644;9.006;2024-02-26T04:15:05;8.50;99.90
21906;DHT22;11117;48.644;9.006;2024-02-26T04:17:31;8.50;99.90
21906;DHT22;11117;48.644;9.006;2024-02-26T04:19:56;8.50;99.90
21906;DHT22;11117;48.644;9.006;2024-02-26T04:22:22;8.50;99.90
21906;DHT22;11117;48.644;9.006;2024-02-26T04:24:47;8.60;99.90
21906;DHT22;11117;48.644;9.006;2024-02-26T04:27:13;8.50;99.90
21906;DHT22;11117;48.644;9.006;2024-02-26T04:29:38;8.50;99.90
21906;DHT22;11117;48.644;9.006;2024-02-26T04:32:04;8.60;99.90
21906;DHT22;11117;48.644;9.006;2024-02-26T04:34:29;8.60;99.90
21906;DHT22;11117;48.644;9.006;2024-02-26T04:36:55;8.60;99.90
21906;DHT22;11117;48.644;9.006;2024-02-26T04:39:21;8.60;99.90
21906;DHT22;11117;48.644;9.006;2024-02-26T04:41:46;8.50;99.90
21906;DHT22;11117;48.644;9.006;2024-02-26T04:44:12;8.40;99.90
21906;DHT22;11117;48.644;9.006;2024-02-26T04:46:37;8.50;99.90
21906;DHT22;11117;48.644;9.006;2024-02-26T04:49:03;8.50;99.90
21906;DHT22;11117;48.644;9.006;2024-02-26T04:51:28;8.50;99.90
21906;DHT22;11117;48.644;9.006;2024-02-26T04:53:54;8.50;99.90
21906;DHT22;11117;48.644;9.006;2024-02-26T04:56:21;8.60;99.90
21906;DHT22;11117;48.644;9.006;2024-02-26T04:58:47;8.50;99.90
21906;DHT22;11117;48.644;9.006;2024-02-26T05:01:14;8.60;99.90
21906;DHT22;11117;48.644;9.006;2024-02-26T05:03:40;8.60;99.90
21906;DHT22;11117;48.644;9.006;2024-02-26T05:06:05;8.50;99.90
21906;DHT22;11117;48.644;9.006;2024-02-26T05:08:31;8.50;99.90
21906;DHT22;11117;48.644;9.006;2024-02-26T05:10:56;8.60;99.90
21906;DHT22;11117;48.644;9.006;2024-02-26T05:13:22;8.60;99.90
21906;DHT22;11117;48.644;9.006;2024-02-26T05:15:48;8.60;99.90
21906;DHT22;11117;48.644;9.006;2024-02-26T05:18:13;8.60;99.90
21906;DHT22;11117;48.644;9.006;2024-02-26T05:20:39;8.60;99.90
21906;DHT22;11117;48.644;9.006;2024-02-26T05:23:05;8.60;99.90
21906;DHT22;11117;48.644;9.006;2024-02-26T05:25:30;8.60;99.90
21906;DHT22;11117;48.644;9.006;2024-02-26T05:27:56;8.50;99.90
21906;DHT22;11117;48.644;9.006;2024-02-26T05:30:21;8.60;99.90
21906;DHT22;11117;48.644;9.006;2024-02-26T05:32:47;8.60;99.90
21906;DHT22;11117;48.644;9.006;2024-02-26T05:35:12;8.60;99.90
21906;DHT22;11117;48.644;9.006;2024-02-26T05:37:38;8.60;99.90
21906;DHT22;11117;48.644;9.006;2024-02-26T05:40:05;8.60;99.90
21906;DHT22;11117;48.644;9.006;2024-02-26T05:42:31;8.60;99.90
21906;DHT22;11117;48.644;9.006;2024-02-26T05:44:56;8.60;99.90
21906;DHT22;11117;48.644;9.006;2024-02-26T05:47:22;8.40;99.90
21906;DHT22;11117;48.644;9.006;2024-02-26T05:49:48;8.40;99.90
21906;DHT22;11117;48.644;9.006;2024-02-26T05:52:13;8.30;99.90
21906;DHT22;11117;48.644;9.006;2024-02-26T05:54:39;8.30;99.90
21906;DHT22;11117;48.644;9.006;2024-02-26T05:57:04;8.20;99.90
21906;DHT22;11117;48.644;9.006;2024-02-26T05:59:30;8.20;99.90
21906;DHT22;11117;48.644;9.006;2024-02-26T06:01:55;8.10;99.90
21906;DHT22;11117;48.644;9.006;2024-02-26T06:04:21;8.10;99.90
21906;DHT22;11117;48.644;9.006;2024-02-26T06:06:46;8.20;99.90
21906;DHT22;11117;48.644;9.006;2024-02-26T06:09:12;8.20;99.90
21906;DHT22;11117;48.644;9.006;2024-02-26T06:11:38;8.20;99.90
21906;DHT22;11117;48.644;9.006;2024-02-26T06:14:04;8.10;99.90
21906;DHT22;11117;48.644;9.006;2024-02-26T06:16:29;8.20;99.90
21906;DHT22;11117;48.644;9.006;2024-02-26T06:18:55;8.10;99.90
21906;DHT22;11117;48.644;9.006;2024-02-26T06:21:20;8.10;99.90
21906;DHT22;11117;48.644;9.006;2024-02-26T06:23:46;8.00;99.90
21906;DHT22;11117;48.644;9.006;2024-02-26T06:26:11;8.00;99.90
21906;DHT22;11117;48.644;9.006;2024-02-26T06:28:37;8.00;99.90
21906;DHT22;11117;48.644;9.006;2024-02-26T06:31:03;7.70;99.90
21906;DHT22;11117;48.644;9.006;2024-02-26T06:33:28;7.30;99.90
21906;DHT22;11117;48.644;9.006;2024-02-26T06:35:54;7.00;99.90
21906;DHT22;11117;48.644;9.006;2024-02-26T06:38:19;6.80;99.90
21906;DHT22;11117;48.644;9.006;2024-02-26T06:40:46;6.60;99.90
21906;DHT22;11117;48.644;9.006;2024-02-26T06:43:11;6.50;99.90
21906;DHT22;11117;48.644;9.006;2024-02-26T06:45:37;6.60;99.90
21906;DHT22;11117;48.644;9.006;2024-02-26T06:48:02;6.60;99.90
21906;DHT22;11117;48.644;9.006;2024-02-26T06:50:28;6.70;99.90
21906;DHT22;11117;48.644;9.006;2024-02-26T06:52:53;6.70;99.90
21906;DHT22;11117;48.644;9.006;2024-02-26T06:55:19;6.60;99.90
21906;DHT22;11117;48.644;9.006;2024-02-26T06:57:44;6.60;99.90
21906;DHT22;11117;48.644;9.006;2024-02-26T07:00:10;6.60;99.90
21906;DHT22;11117;48.644;9.006;2024-02-26T07:02:36;6.60;99.90
21906;DHT22;11117;48.644;9.006;2024-02-26T07:05:02;6.50;99.90
21906;DHT22;11117;48.644;9.006;2024-02-26T07:07:27;6.50;99.90
21906;DHT22;11117;48.644;9.006;2024-02-26T07:09:54;6.60;99.90
21906;DHT22;11117;48.644;9.006;2024-02-26T07:12:20;6.60;99.90
21906;DHT22;11117;48.644;9.006;2024-02-26T07:14:46;6.80;99.90
21906;DHT22;11117;48.644;9.006;2024-02-26T07:17:13;6.90;99.90
21906;DHT22;11117;48.644;9.006;2024-02-26T07:19:38;7.10;99.90
21906;DHT22;11117;48.644;9.006;2024-02-26T07:22:04;6.90;99.90
21906;DHT22;11117;48.644;9.006;2024-02-26T07:24:29;6.80;99.90
21906;DHT22;11117;48.644;9.006;2024-02-26T07:26:55;6.80;99.90
21906;DHT22;11117;48.644;9.006;2024-02-26T07:29:21;7.10;99.90
21906;DHT22;11117;48.644;9.006;2024-02-26T07:31:47;7.30;99.90
21906;DHT22;11117;48.644;9.006;2024-02-26T07:34:13;7.40;99.90
21906;DHT22;11117;48.644;9.006;2024-02-26T07:36:38;7.70;99.90
21906;DHT22;11117;48.644;9.006;2024-02-26T07:39:04;7.80;99.90
21906;DHT22;11117;48.644;9.006;2024-02-26T07:41:29;8.00;99.90
21906;DHT22;11117;48.644;9.006;2024-02-26T07:43:55;8.20;99.90
21906;DHT22;11117;48.644;9.006;2024-02-26T07:46:20;8.30;99.90
21906;DHT22;11117;48.644;9.006;2024-02-26T07:48:46;8.40;99.90
21906;DHT22;11117;48.644;9.006;2024-02-26T07:51:14;8.50;99.90
21906;DHT22;11117;48.644;9.006;2024-02-26T07:53:40;8.50;99.90
21906;DHT22;11117;48.644;9.006;2024-02-26T07:56:06;8.50;99.90
21906;DHT22;11117;48.644;9.006;2024-02-26T07:58:35;8.50;99.90
21906;DHT22;11117;48.644;9.006;2024-02-26T08:01:01;8.60;99.90
21906;DHT22;11117;48.644;9.006;2024-02-26T08:03:26;8.70;99.90
21906;DHT22;11117;48.644;9.006;2024-02-26T08:05:52;8.90;99.90
21906;DHT22;11117;48.644;9.006;2024-02-26T08:08:18;8.90;99.90
21906;DHT22;11117;48.644;9.006;2024-02-26T08:10:43;9.10;99.90
21906;DHT22;11117;48.644;9.006;2024-02-26T08:13:09;9.20;99.90
21906;DHT22;11117;48.644;9.006;2024-02-26T08:15:35;9.30;99.90
21906;DHT22;11117;48.644;9.006;2024-02-26T08:18:01;9.40;99.90
21906;DHT22;11117;48.644;9.006;2024-02-26T08:20:28;9.50;99.90
21906;DHT22;11117;48.644;9.006;2024-02-26T08:22:53;9.60;99.90
21906;DHT22;11117;48.644;9.006;2024-02-26T08:25:19;9.70;99.90
21906;DHT22;11117;48.644;9.006;2024-02-26T08:27:44;9.80;99.90
21906;DHT22;11117;48.644;9.006;2024-02-26T08:30:11;9.90;99.90
21906;DHT22;11117;48.644;9.006;2024-02-26T08:32:36;9.90;99.90
21906;DHT22;11117;48.644;9.006;2024-02-26T08:35:02;10.00;99.90
21906;DHT22;11117;48.644;9.006;2024-02-26T08:37:28;10.10;99.90
21906;DHT22;11117;48.644;9.006;2024-02-26T08:39:53;10.20;99.90
21906;DHT22;11117;48.644;9.006;2024-02-26T08:42:19;10.20;99.90
21906;DHT22;11117;48.644;9.006;2024-02-26T08:44:44;10.30;99.90
21906;DHT22;11117;48.644;9.006;2024-02-26T08:47:13;10.30;99.90
21906;DHT22;11117;48.644;9.006;2024-02-26T08:49:42;10.30;99.90
21906;DHT22;11117;48.644;9.006;2024-02-26T08:52:12;10.30;99.90
21906;DHT22;11117;48.644;9.006;2024-02-26T08:54:38;10.40;99.90
21906;DHT22;11117;48.644;9.006;2024-02-26T08:57:04;10.40;99.90
21906;DHT22;11117;48.644;9.006;2024-02-26T08:59:29;10.40;99.90
21906;DHT22;11117;48.644;9.006;2024-02-26T09:01:55;10.40;99.90
21906;DHT22;11117;48.644;9.006;2024-02-26T09:04:20;10.40;99.90
21906;DHT22;11117;48.644;9.006;2024-02-26T09:06:46;10.40;99.90
21906;DHT22;11117;48.644;9.006;2024-02-26T09:09:12;10.50;99.90
21906;DHT22;11117;48.644;9.006;2024-02-26T09:11:38;10.30;99.90
21906;DHT22;11117;48.644;9.006;2024-02-26T09:14:03;10.00;99.90
21906;DHT22;11117;48.644;9.006;2024-02-26T09:16:29;10.10;99.90
21906;DHT22;11117;48.644;9.006;2024-02-26T09:18:56;10.10;99.90
21906;DHT22;11117;48.644;9.006;2024-02-26T09:21:21;10.20;99.90
21906;DHT22;11117;48.644;9.006;2024-02-26T09:23:47;10.40;99.90
21906;DHT22;11117;48.644;9.006;2024-02-26T09:26:12;10.50;99.90
21906;DHT22;11117;48.644;9.006;2024-02-26T09:28:38;10.50;99.90
21906;DHT22;11117;48.644;9.006;2024-02-26T09:31:04;10.50;99.90
21906;DHT22;11117;48.644;9.006;2024-02-26T09:33:30;10.80;99.90
21906;DHT22;11117;48.644;9.006;2024-02-26T09:35:55;11.00;99.90
21906;DHT22;11117;48.644;9.006;2024-02-26T09:38:21;11.00;99.90
21906;DHT22;11117;48.644;9.006;2024-02-26T09:40:46;11.10;99.90
21906;DHT22;11117;48.644;9.006;2024-02-26T09:43:14;11.40;99.90
21906;DHT22;11117;48.644;9.006;2024-02-26T09:45:40;11.60;99.90
21906;DHT22;11117;48.644;9.006;2024-02-26T09:48:08;11.90;99.90
21906;DHT22;11117;48.644;9.006;2024-02-26T09:50:35;12.10;99.90
21906;DHT22;11117;48.644;9.006;2024-02-26T09:53:02;12.30;99.90
21906;DHT22;11117;48.644;9.006;2024-02-26T09:55:27;12.50;99.90
21906;DHT22;11117;48.644;9.006;2024-02-26T09:57:54;12.70;99.90
21906;DHT22;11117;48.644;9.006;2024-02-26T10:00:22;12.90;99.90
21906;DHT22;11117;48.644;9.006;2024-02-26T10:02:48;13.00;99.90
21906;DHT22;11117;48.644;9.006;2024-02-26T10:05:18;13.20;99.90
21906;DHT22;11117;48.644;9.006;2024-02-26T10:07:44;13.40;99.90
21906;DHT22;11117;48.644;9.006;2024-02-26T10:10:10;13.50;99.90
21906;DHT22;11117;48.644;9.006;2024-02-26T10:12:36;13.60;99.90
21906;DHT22;11117;48.644;9.006;2024-02-26T10:15:01;13.80;99.90
21906;DHT22;11117;48.644;9.006;2024-02-26T10:17:27;14.00;99.90
21906;DHT22;11117;48.644;9.006;2024-02-26T10:19:52;14.10;99.90
21906;DHT22;11117;48.644;9.006;2024-02-26T10:22:18;14.20;99.90
21906;DHT22;11117;48.644;9.006;2024-02-26T10:24:47;14.20;99.90
21906;DHT22;11117;48.644;9.006;2024-02-26T10:27:14;14.30;99.90
21906;DHT22;11117;48.644;9.006;2024-02-26T10:29:40;14.30;99.90
21906;DHT22;11117;48.644;9.006;2024-02-26T10:32:06;14.40;99.90
21906;DHT22;11117;48.644;9.006;2024-02-26T10:34:31;14.50;99.90
21906;DHT22;11117;48.644;9.006;2024-02-26T10:36:57;14.50;99.90
21906;DHT22;11117;48.644;9.006;2024-02-26T10:39:22;14.60;99.90
21906;DHT22;11117;48.644;9.006;2024-02-26T10:41:48;14.70;99.90
21906;DHT22;11117;48.644;9.006;2024-02-26T10:44:14;14.70;99.90
21906;DHT22;11117;48.644;9.006;2024-02-26T10:46:42;14.80;99.90
21906;DHT22;11117;48.644;9.006;2024-02-26T10:49:15;14.80;99.90
21906;DHT22;11117;48.644;9.006;2024-02-26T10:51:44;14.80;99.90
21906;DHT22;11117;48.644;9.006;2024-02-26T10:54:12;14.80;99.90
21906;DHT22;11117;48.644;9.006;2024-02-26T10:56:42;14.70;99.90
21906;DHT22;11117;48.644;9.006;2024-02-26T10:59:09;14.70;99.90
21906;DHT22;11117;48.644;9.006;2024-02-26T11:01:35;14.60;99.90
21906;DHT22;11117;48.644;9.006;2024-02-26T11:04:01;14.70;99.90
21906;DHT22;11117;48.644;9.006;2024-02-26T11:06:27;14.90;99.90
21906;DHT22;11117;48.644;9.006;2024-02-26T11:08:54;14.90;99.90
21906;DHT22;11117;48.644;9.006;2024-02-26T11:11:22;15.00;99.90
21906;DHT22;11117;48.644;9.006;2024-02-26T11:13:51;15.00;99.90
21906;DHT22;11117;48.644;9.006;2024-02-26T11:16:18;14.80;99.90
21906;DHT22;11117;48.644;9.006;2024-02-26T11:18:46;14.70;99.90
21906;DHT22;11117;48.644;9.006;2024-02-26T11:21:15;14.60;99.90
21906;DHT22;11117;48.644;9.006;2024-02-26T11:23:41;14.60;99.90
21906;DHT22;11117;48.644;9.006;2024-02-26T11:26:07;14.70;99.90
21906;DHT22;11117;48.644;9.006;2024-02-26T11:28:35;14.70;99.90
21906;DHT22;11117;48.644;9.006;2024-02-26T11:31:01;14.70;99.90
21906;DHT22;11117;48.644;9.006;2024-02-26T11:33:28;14.80;99.90
21906;DHT22;11117;48.644;9.006;2024-02-26T11:35:54;14.50;99.90
21906;DHT22;11117;48.644;9.006;2024-02-26T11:38:21;14.70;99.90
21906;DHT22;11117;48.644;9.006;2024-02-26T11:40:47;14.80;99.90
21906;DHT22;11117;48.644;9.006;2024-02-26T11:43:13;14.90;99.90
21906;DHT22;11117;48.644;9.006;2024-02-26T11:48:11;15.10;99.90
21906;DHT22;11117;48.644;9.006;2024-02-26T11:50:40;15.10;99.90
21906;DHT22;11117;48.644;9.006;2024-02-26T11:53:30;15.10;99.90
21906;DHT22;11117;48.644;9.006;2024-02-26T11:56:20;15.00;99.90
21906;DHT22;11117;48.644;9.006;2024-02-26T11:58:46;15.00;99.90
21906;DHT22;11117;48.644;9.006;2024-02-26T12:01:41;15.10;99.90
21906;DHT22;11117;48.644;9.006;2024-02-26T12:04:32;15.10;99.90
21906;DHT22;11117;48.644;9.006;2024-02-26T12:07:00;15.20;99.90
21906;DHT22;11117;48.644;9.006;2024-02-26T12:09:38;15.00;99.90
21906;DHT22;11117;48.644;9.006;2024-02-26T12:12:09;14.90;99.90
21906;DHT22;11117;48.644;9.006;2024-02-26T12:14:39;14.90;99.90
21906;DHT22;11117;48.644;9.006;2024-02-26T12:17:05;15.10;99.90
21906;DHT22;11117;48.644;9.006;2024-02-26T12:19:31;15.20;99.90
21906;DHT22;11117;48.644;9.006;2024-02-26T12:21:57;15.30;99.90
21906;DHT22;11117;48.644;9.006;2024-02-26T12:24:23;15.40;99.90
21906;DHT22;11117;48.644;9.006;2024-02-26T12:26:48;15.50;99.90
21906;DHT22;11117;48.644;9.006;2024-02-26T12:29:14;15.40;99.90
21906;DHT22;11117;48.644;9.006;2024-02-26T12:31:40;15.50;99.90
21906;DHT22;11117;48.644;9.006;2024-02-26T12:34:06;15.60;99.90
21906;DHT22;11117;48.644;9.006;2024-02-26T12:36:34;15.70;99.90
21906;DHT22;11117;48.644;9.006;2024-02-26T12:38:59;15.90;99.90
21906;DHT22;11117;48.644;9.006;2024-02-26T12:41:25;16.00;99.90
21906;DHT22;11117;48.644;9.006;2024-02-26T12:43:53;16.10;99.90
21906;DHT22;11117;48.644;9.006;2024-02-26T12:46:18;16.10;99.90
21906;DHT22;11117;48.644;9.006;2024-02-26T12:48:44;16.20;99.90
21906;DHT22;11117;48.644;9.006;2024-02-26T12:51:11;16.20;99.90
21906;DHT22;11117;48.644;9.006;2024-02-26T12:53:38;16.20;99.90
21906;DHT22;11117;48.644;9.006;2024-02-26T12:56:05;16.20;99.90
21906;DHT22;11117;48.644;9.006;2024-02-26T12:58:31;16.30;99.90
21906;DHT22;11117;48.644;9.006;2024-02-26T13:00:57;16.20;99.70
21906;DHT22;11117;48.644;9.006;2024-02-26T13:03:23;16.30;99.90
21906;DHT22;11117;48.644;9.006;2024-02-26T13:05:50;16.40;99.90
21906;DHT22;11117;48.644;9.006;2024-02-26T13:08:19;16.50;99.90
21906;DHT22;11117;48.644;9.006;2024-02-26T13:10:46;16.50;99.90
21906;DHT22;11117;48.644;9.006;2024-02-26T13:13:14;16.60;99.90
21906;DHT22;11117;48.644;9.006;2024-02-26T13:15:40;16.70;99.90
21906;DHT22;11117;48.644;9.006;2024-02-26T13:18:13;16.80;99.90
21906;DHT22;11117;48.644;9.006;2024-02-26T13:20:39;16.80;99.90
21906;DHT22;11117;48.644;9.006;2024-02-26T13:23:12;16.70;99.90
21906;DHT22;11117;48.644;9.006;2024-02-26T13:25:37;16.70;99.90
21906;DHT22;11117;48.644;9.006;2024-02-26T13:28:07;16.70;99.90
21906;DHT22;11117;48.644;9.006;2024-02-26T13:30:33;16.70;99.60
21906;DHT22;11117;48.644;9.006;2024-02-26T13:33:10;16.70;99.90
21906;DHT22;11117;48.644;9.006;2024-02-26T13:35:36;16.60;99.20
21906;DHT22;11117;48.644;9.006;2024-02-26T13:38:02;16.40;99.90
21906;DHT22;11117;48.644;9.006;2024-02-26T13:40:28;16.30;98.80
21906;DHT22;11117;48.644;9.006;2024-02-26T13:42:53;16.10;99.70
21906;DHT22;11117;48.644;9.006;2024-02-26T13:45:19;16.10;99.80
21906;DHT22;11117;48.644;9.006;2024-02-26T13:47:44;16.10;99.30
21906;DHT22;11117;48.644;9.006;2024-02-26T13:50:10;16.20;99.90
21906;DHT22;11117;48.644;9.006;2024-02-26T13:52:36;16.20;99.00
21906;DHT22;11117;48.644;9.006;2024-02-26T13:55:01;16.20;98.40
21906;DHT22;11117;48.644;9.006;2024-02-26T13:57:27;16.40;99.20
21906;DHT22;11117;48.644;9.006;2024-02-26T13:59:52;16.50;99.90
21906;DHT22;11117;48.644;9.006;2024-02-26T14:02:18;16.60;98.60
21906;DHT22;11117;48.644;9.006;2024-02-26T14:04:43;16.50;97.40
21906;DHT22;11117;48.644;9.006;2024-02-26T14:07:14;16.30;98.50
21906;DHT22;11117;48.644;9.006;2024-02-26T14:09:40;16.00;98.00
21906;DHT22;11117;48.644;9.006;2024-02-26T14:12:05;15.70;96.70
21906;DHT22;11117;48.644;9.006;2024-02-26T14:14:31;15.60;98.50
21906;DHT22;11117;48.644;9.006;2024-02-26T14:16:56;15.20;97.30
21906;DHT22;11117;48.644;9.006;2024-02-26T14:19:22;15.00;98.50
21906;DHT22;11117;48.644;9.006;2024-02-26T14:21:48;15.10;97.70
21906;DHT22;11117;48.644;9.006;2024-02-26T14:24:13;15.00;97.70
21906;DHT22;11117;48.644;9.006;2024-02-26T14:26:40;15.10;99.60
21906;DHT22;11117;48.644;9.006;2024-02-26T14:29:06;14.90;97.90
21906;DHT22;11117;48.644;9.006;2024-02-26T14:31:31;14.70;97.80
21906;DHT22;11117;48.644;9.006;2024-02-26T14:33:57;14.70;98.70
21906;DHT22;11117;48.644;9.006;2024-02-26T14:36:22;14.60;98.60
21906;DHT22;11117;48.644;9.006;2024-02-26T14:38:48;14.60;98.60
21906;DHT22;11117;48.644;9.006;2024-02-26T14:41:14;14.60;99.60
21906;DHT22;11117;48.644;9.006;2024-02-26T14:43:39;14.50;98.60
21906;DHT22;11117;48.644;9.006;2024-02-26T14:46:05;14.50;98.60
21906;DHT22;11117;48.644;9.006;2024-02-26T14:48:31;14.30;98.00
21906;DHT22;11117;48.644;9.006;2024-02-26T14:50:57;14.30;98.10
21906;DHT22;11117;48.644;9.006;2024-02-26T14:53:22;14.20;98.70
21906;DHT22;11117;48.644;9.006;2024-02-26T14:55:48;14.10;98.20
21906;DHT22;11117;48.644;9.006;2024-02-26T14:58:13;14.10;98.40
21906;DHT22;11117;48.644;9.006;2024-02-26T15:00:39;14.10;98.50
21906;DHT22;11117;48.644;9.006;2024-02-26T15:03:04;14.10;99.90
21906;DHT22;11117;48.644;9.006;2024-02-26T15:05:30;14.10;99.20
21906;DHT22;11117;48.644;9.006;2024-02-26T15:07:55;14.00;98.60
21906;DHT22;11117;48.644;9.006;2024-02-26T15:10:21;14.10;99.90
21906;DHT22;11117;48.644;9.006;2024-02-26T15:12:47;14.10;99.00
21906;DHT22;11117;48.644;9.006;2024-02-26T15:15:12;14.10;99.90
21906;DHT22;11117;48.644;9.006;2024-02-26T15:17:38;14.10;99.70
21906;DHT22;11117;48.644;9.006;2024-02-26T15:20:03;14.00;99.10
21906;DHT22;11117;48.644;9.006;2024-02-26T15:22:29;14.00;99.90
21906;DHT22;11117;48.644;9.006;2024-02-26T15:24:55;14.00;99.80
21906;DHT22;11117;48.644;9.006;2024-02-26T15:27:20;14.10;99.10
21906;DHT22;11117;48.644;9.006;2024-02-26T15:29:46;14.00;99.30
21906;DHT22;11117;48.644;9.006;2024-02-26T15:32:13;14.00;99.20
21906;DHT22;11117;48.644;9.006;2024-02-26T15:34:38;13.90;99.50
21906;DHT22;11117;48.644;9.006;2024-02-26T15:37:04;13.80;99.40